Data for 10/22/2018

Time Sea-Level Adjusted Pressure Absolute Pressure Temperature Relative Humidity Dew Point   
(mb) (inHg) (mb) (inHg) (C) (F) (%) (C) (F)
00:05 1022 30.18 851 25.13 11.4 52.6 36 -3.2 26.3
00:10 1022 30.18 851 25.13 11.4 52.6 36 -3.2 26.2
00:15 1022 30.18 851 25.13 11.3 52.4 36 -3.3 26
00:20 1022 30.18 851 25.13 10.9 51.6 41 -2 28.5
00:25 1022 30.18 851 25.13 9.3 48.7 43 -2.5 27.5
00:30 1022 30.18 851 25.13 8.9 48 45 -2.5 27.5
00:35 1022 30.18 851 25.13 9.1 48.4 42 -3.2 26.2
00:40 1022 30.18 851 25.13 9.8 49.6 40 -3 26.6
00:45 1022 30.18 851 25.13 10 49.9 39 -3.3 26
00:50 1022 30.18 851 25.13 10.4 50.7 38 -3.4 25.8
00:55 1022 30.18 851 25.13 10.6 51 37 -3.4 25.9
01:00 1022 30.18 851 25.13 10.7 51.3 37 -3.3 26.1
01:05 1022 30.18 851 25.13 10.4 50.8 39 -2.9 26.7
01:10 1022 30.18 851 25.13 10.2 50.4 40 -2.9 26.7
01:15 1022 30.18 851 25.13 10.2 50.4 40 -2.9 26.8
01:20 1022 30.18 851 25.13 10.2 50.4 40 -2.8 27
01:25 1022 30.18 851 25.13 10.2 50.3 40 -2.7 27.1
01:30 1022 30.18 851 25.13 10 49.9 41 -2.6 27.3
01:35 1022 30.18 851 25.13 9.9 49.7 42 -2.5 27.4
01:40 1022 30.18 851 25.13 9.8 49.6 42 -2.5 27.5
01:45 1022 30.18 851 25.13 9.8 49.7 42 -2.5 27.6
01:50 1022 30.18 852 25.16 9.9 49.8 42 -2.4 27.7
01:55 1022 30.18 852 25.16 9.7 49.5 42 -2.5 27.6
02:00 1022 30.18 852 25.16 9.6 49.3 43 -2.5 27.5
02:05 1022 30.18 852 25.16 9.5 49.1 42 -2.6 27.4
02:10 1022 30.18 852 25.16 9.5 49.1 42 -2.6 27.3
02:15 1023 30.21 852 25.16 9.5 49.1 43 -2.5 27.4
02:20 1023 30.21 852 25.16 9.5 49.1 43 -2.6 27.4
02:25 1023 30.21 852 25.16 9.6 49.3 42 -2.5 27.5
02:30 1023 30.21 852 25.16 9.8 49.7 41 -2.7 27.1
02:35 1023 30.21 852 25.16 10 50 41 -2.7 27.2
02:40 1023 30.21 852 25.16 10.1 50.1 41 -2.7 27.2
02:45 1023 30.21 852 25.16 10 49.9 41 -2.7 27.1
02:50 1023 30.21 852 25.16 10.2 50.3 39 -3.1 26.5
02:55 1023 30.21 852 25.16 10.2 50.4 39 -3 26.6
03:00 1023 30.21 852 25.16 10.3 50.5 39 -3.2 26.3
03:05 1023 30.21 852 25.16 10.3 50.5 39 -3 26.5
03:10 1023 30.21 852 25.16 10.2 50.3 39 -3.1 26.4
03:15 1023 30.21 852 25.16 10.1 50.1 39 -3.2 26.2
03:20 1023 30.21 852 25.16 10 49.9 39 -3.2 26.2
03:25 1023 30.21 852 25.16 10 50 39 -3.4 25.8
03:30 1023 30.21 852 25.16 10 49.9 39 -3.3 26
03:35 1022 30.18 852 25.16 9.9 49.8 39 -3.4 25.9
03:40 1023 30.21 852 25.16 9.8 49.6 39 -3.4 25.9
03:45 1023 30.21 852 25.16 9.8 49.6 39 -3.7 25.4
03:50 1023 30.21 852 25.16 9.8 49.6 39 -3.5 25.8
03:55 1023 30.21 852 25.16 9.6 49.2 40 -3.4 25.9
04:00 1023 30.21 852 25.16 9.4 49 40 -3.5 25.7
04:05 1023 30.21 852 25.16 9.4 49 40 -3.3 26
04:10 1023 30.21 852 25.16 9.3 48.8 41 -3.3 26.1
04:15 1023 30.21 852 25.16 9.3 48.7 41 -3.4 25.9
04:20 1023 30.21 852 25.16 9.3 48.7 41 -3.3 26.1
04:25 1023 30.21 852 25.16 9.1 48.4 41 -3.2 26.2
04:30 1023 30.21 852 25.16 8.9 48.1 42 -3.3 26.1
04:35 1023 30.21 852 25.16 8.8 47.8 42 -3.2 26.2
04:40 1023 30.21 852 25.16 8.7 47.7 42 -3.4 25.9
04:45 1023 30.21 852 25.16 8.8 47.8 42 -3.3 26.1
04:50 1023 30.21 852 25.16 8.7 47.7 43 -3.2 26.2
04:55 1023 30.21 852 25.16 8.7 47.6 43 -3.3 26.1
05:00 1023 30.21 852 25.16 8.6 47.5 43 -3.3 26.1
05:05 1023 30.21 852 25.16 8.5 47.3 43 -3.3 26
05:10 1023 30.21 852 25.16 8.4 47 43 -3.3 26
05:15 1023 30.21 852 25.16 8.2 46.7 44 -3.2 26.2
05:20 1023 30.21 852 25.16 8 46.3 45 -3.2 26.2
05:25 1023 30.21 852 25.16 8 46.3 45 -3.3 26.1
05:30 1023 30.21 852 25.16 8 46.3 45 -3.2 26.2
05:35 1023 30.21 852 25.16 7.9 46.3 46 -3.1 26.4
05:40 1023 30.21 852 25.16 7.8 46.1 46 -3 26.5
05:45 1023 30.21 852 25.16 7.5 45.5 48 -2.7 27.1
05:50 1023 30.21 852 25.16 7.2 45 49 -2.9 26.8
05:55 1023 30.21 852 25.16 7.1 44.7 49 -2.8 27
06:00 1023 30.21 852 25.16 7 44.5 50 -2.8 27
06:05 1023 30.21 852 25.16 6.9 44.4 50 -2.8 27
06:10 1023 30.21 852 25.16 6.7 44.1 51 -2.7 27.1
06:15 1023 30.21 852 25.16 6.7 44 50 -2.9 26.7
06:20 1023 30.21 852 25.16 6.7 44.1 50 -2.8 26.9
06:25 1023 30.21 852 25.16 6.6 43.9 51 -2.7 27.1
06:30 1023 30.21 852 25.16 6.5 43.7 52 -2.7 27.2
06:35 1023 30.21 852 25.16 6.2 43.1 54 -2.5 27.5
06:40 1023 30.21 852 25.16 5.9 42.6 54 -2.7 27.2
06:45 1023 30.21 852 25.16 6.1 42.9 53 -2.7 27.1
06:50 1023 30.21 852 25.16 6.2 43.2 53 -2.6 27.4
06:55 1023 30.21 852 25.16 6.2 43.2 53 -2.6 27.4
07:00 1023 30.21 852 25.16 6.2 43.2 53 -2.6 27.3
07:05 1023 30.21 852 25.16 6.3 43.4 53 -2.5 27.4
07:10 1023 30.21 852 25.16 6.1 43 55 -2.4 27.8
07:15 1023 30.21 852 25.16 5.8 42.4 55 -2.7 27.2
07:20 1023 30.21 853 25.19 6.2 43.1 53 -2.7 27.1
07:25 1023 30.21 853 25.19 6.3 43.3 53 -2.7 27.2
07:30 1023 30.21 853 25.19 6.5 43.7 52 -2.7 27.2
07:35 1023 30.21 853 25.19 6.9 44.4 51 -2.5 27.5
07:40 1024 30.24 853 25.19 6.8 44.2 52 -2.5 27.5
07:45 1024 30.24 853 25.19 6.9 44.4 50 -2.7 27.2
07:50 1024 30.24 853 25.19 7.2 45 50 -2.5 27.5
07:55 1024 30.24 853 25.19 7.3 45.2 50 -2.4 27.7
08:00 1024 30.24 853 25.19 7.4 45.3 49 -2.5 27.5
08:05 1024 30.24 853 25.19 7.8 46 49 -2.3 27.8
08:10 1024 30.24 853 25.19 8 46.4 48 -2.4 27.6
08:15 1024 30.24 853 25.19 8.1 46.6 48 -2.3 27.9
08:20 1024 30.24 853 25.19 8.4 47.2 47 -2.3 27.9
08:25 1024 30.24 853 25.19 8.7 47.6 46 -2.3 27.9
08:30 1024 30.24 853 25.19 9 48.2 45 -2.3 27.9
08:35 1024 30.24 853 25.19 9.2 48.5 44 -2.3 27.9
08:40 1024 30.24 853 25.19 9.5 49.1 43 -2.4 27.6
08:45 1024 30.24 853 25.19 9.6 49.3 43 -2.3 27.8
08:50 1024 30.24 853 25.19 9.9 49.9 42 -2.4 27.8
08:55 1024 30.24 853 25.19 10.2 50.3 41 -2.5 27.5
09:00 1024 30.24 853 25.19 10.2 50.3 40 -2.7 27.1
09:05 1024 30.24 853 25.19 10.6 51 40 -2.5 27.5
09:10 1024 30.24 853 25.19 10.7 51.2 40 -2.4 27.6
09:15 1024 30.24 853 25.19 10.7 51.3 40 -2.4 27.6
09:20 1024 30.24 853 25.19 10.8 51.4 39 -2.5 27.5
09:25 1024 30.24 853 25.19 11 51.8 39 -2.5 27.5
09:30 1024 30.24 853 25.19 11.1 52 39 -2.4 27.7
09:35 1024 30.24 853 25.19 11.1 52 40 -1.8 28.7
09:40 1024 30.24 853 25.19 11 51.8 39 -2.4 27.7
09:45 1024 30.24 853 25.19 11.7 53 37 -2.4 27.6
09:50 1024 30.24 853 25.19 11.6 52.8 39 -1.9 28.6
09:55 1024 30.24 853 25.19 11.6 52.9 39 -2 28.4
10:00 1024 30.24 853 25.19 11.6 52.9 37 -2.6 27.2
10:05 1024 30.24 853 25.19 11.7 53 40 -1.5 29.3
10:10 1024 30.24 853 25.19 11.5 52.7 39 -1.9 28.6
10:15 1024 30.24 853 25.19 11.6 52.8 41 -1.3 29.7
10:20 1024 30.24 853 25.19 11.4 52.5 42 -1.1 30.1
10:25 1024 30.24 853 25.19 11.2 52.1 42 -1.2 29.8
10:30 1024 30.24 853 25.19 11.1 51.9 42 -1.3 29.7
10:35 1024 30.24 853 25.19 11.1 52 42 -1.3 29.7
10:40 1024 30.24 853 25.19 11.4 52.6 40 -1.8 28.8
10:45 1023 30.21 853 25.19 11.7 53 41 -1.2 29.8
10:50 1023 30.21 853 25.19 11.5 52.6 40 -1.7 28.9
10:55 1023 30.21 853 25.19 12.6 54.7 37 -1.6 29.2
11:00 1023 30.21 853 25.19 13.1 55.5 36 -1.6 29.1
11:05 1023 30.21 853 25.19 13.2 55.7 38 -0.9 30.4
11:10 1023 30.21 853 25.19 12.9 55.2 36 -1.6 29.1
11:15 1023 30.21 852 25.16 12.9 55.3 36 -1.6 29.1
11:20 1023 30.21 852 25.16 12.5 54.5 37 -1.6 29
11:25 1023 30.21 852 25.16 13.2 55.7 35 -1.9 28.7
11:30 1023 30.21 852 25.16 13.9 57 33 -1.9 28.6
11:35 1023 30.21 852 25.16 13.3 56 35 -1.6 29.2
11:40 1023 30.21 852 25.16 13.4 56 34 -2.3 27.9
11:45 1023 30.21 852 25.16 13.8 56.8 34 -1.8 28.8
11:50 1023 30.21 852 25.16 14.7 58.4 32 -1.8 28.8
11:55 1023 30.21 852 25.16 14.4 57.9 32 -2 28.4
12:00 1023 30.21 852 25.16 14.7 58.4 32 -1.8 28.7
12:05 1023 30.21 852 25.16 15.3 59.5 30 -2 28.4
12:10 1023 30.21 852 25.16 14.1 57.4 33 -1.9 28.5
12:15 1023 30.21 852 25.16 14.6 58.3 32 -1.9 28.6
12:20 1023 30.21 852 25.16 15.3 59.5 31 -1.7 28.9
12:25 1023 30.21 852 25.16 15.1 59.1 31 -2 28.4
12:30 1022 30.18 852 25.16 15.8 60.4 29 -2.1 28.3
12:35 1022 30.18 852 25.16 15.3 59.6 31 -1.7 29
12:40 1022 30.18 852 25.16 14.8 58.7 32 -1.6 29.1
12:45 1022 30.18 852 25.16 14.4 57.8 32 -2.1 28.2
12:50 1022 30.18 851 25.13 14.7 58.5 31 -2 28.3
12:55 1022 30.18 851 25.13 14.9 58.9 31 -1.9 28.7
13:00 1022 30.18 851 25.13 15.3 59.6 29 -2.6 27.3
13:05 1022 30.18 851 25.13 15.8 60.4 28 -2.4 27.6
13:10 1022 30.18 851 25.13 15.9 60.6 28 -2.4 27.7
13:15 1022 30.18 851 25.13 15.8 60.4 29 -2.3 27.8
13:20 1022 30.18 851 25.13 16.4 61.4 28 -2.2 28.1
13:25 1022 30.18 851 25.13 16.2 61.2 27 -2.5 27.4
13:30 1022 30.18 851 25.13 16.6 61.9 27 -2.2 28.1
13:35 1022 30.18 851 25.13 16.2 61.1 28 -2.3 27.9
13:40 1022 30.18 851 25.13 16.5 61.7 27 -2.7 27.2
13:45 1022 30.18 851 25.13 16.2 61.1 28 -2.4 27.6
13:50 1022 30.18 851 25.13 16.2 61.1 27 -2.6 27.2
13:55 1022 30.18 851 25.13 16.4 61.4 27 -2.6 27.3
14:00 1022 30.18 851 25.13 16.2 61.1 27 -2.6 27.4
14:05 1022 30.18 851 25.13 16.5 61.7 27 -2.3 27.9
14:10 1022 30.18 851 25.13 16.5 61.8 27 -2.4 27.7
14:15 1022 30.18 851 25.13 16.5 61.6 27 -2.6 27.2
14:20 1022 30.18 851 25.13 16.1 61.1 28 -2.3 27.8
14:25 1021 30.15 851 25.13 16.1 61.1 28 -2.5 27.5
14:30 1021 30.15 851 25.13 15.7 60.3 28 -2.5 27.4
14:35 1021 30.15 851 25.13 16 60.8 28 -2.5 27.6
14:40 1021 30.15 851 25.13 16.3 61.3 28 -2.3 27.8
14:45 1021 30.15 851 25.13 16.1 60.9 28 -2.2 28.1
14:50 1021 30.15 850 25.1 15.9 60.6 29 -2.1 28.3
14:55 1021 30.15 850 25.1 16.1 60.9 29 -1.8 28.8
15:00 1021 30.15 850 25.1 15.5 60 30 -1.9 28.6
15:05 1021 30.15 850 25.1 15.6 60 30 -1.8 28.7
15:10 1021 30.15 850 25.1 15.6 60 30 -1.7 28.9
15:15 1021 30.15 850 25.1 15.3 59.6 31 -1.7 29
15:20 1021 30.15 850 25.1 15.2 59.3 31 -1.7 29
15:25 1021 30.15 850 25.1 15.2 59.3 31 -1.6 29
15:30 1021 30.15 850 25.1 15 59 31 -1.7 29
15:35 1021 30.15 850 25.1 14.9 58.8 32 -1.7 28.9
15:40 1021 30.15 850 25.1 14.8 58.7 31 -1.9 28.7
15:45 1021 30.15 850 25.1 15 59 31 -1.8 28.8
15:50 1021 30.15 850 25.1 14.7 58.4 32 -1.9 28.6
15:55 1021 30.15 850 25.1 14.5 58.1 32 -2.1 28.2
16:00 1021 30.15 850 25.1 14.3 57.7 32 -2.3 27.9
16:05 1021 30.15 850 25.1 14.1 57.4 31 -2.7 27.2
16:10 1021 30.15 850 25.1 14 57.2 31 -2.7 27.2
16:15 1021 30.15 850 25.1 13.9 56.9 31 -3 26.6
16:20 1021 30.15 850 25.1 13.8 56.8 30 -3.3 26.1
16:25 1021 30.15 850 25.1 13.7 56.7 30 -3.6 25.6
16:30 1021 30.15 850 25.1 13.6 56.5 30 -3.7 25.4
16:35 1021 30.15 850 25.1 13.5 56.3 29 -4.1 24.7
16:40 1021 30.15 850 25.1 13.4 56.1 29 -4.2 24.5
16:45 1021 30.15 850 25.1 13.3 55.9 29 -4.3 24.3
16:50 1021 30.15 850 25.1 13.1 55.7 29 -4.3 24.3
16:55 1021 30.15 850 25.1 12.9 55.2 29 -4.6 23.7
17:00 1021 30.15 850 25.1 12.8 55 29 -4.6 23.6
17:05 1021 30.15 850 25.1 12.6 54.6 30 -4.6 23.7
17:10 1021 30.15 850 25.1 12.4 54.3 30 -4.7 23.5
17:15 1021 30.15 850 25.1 12.2 54 30 -4.9 23.1
17:20 1021 30.15 850 25.1 12.1 53.8 30 -5.1 22.8
17:25 1021 30.15 850 25.1 11.9 53.5 30 -5.1 22.8
17:30 1021 30.15 850 25.1 11.9 53.4 29 -5.4 22.3
17:35 1021 30.15 850 25.1 11.8 53.2 30 -5.3 22.4
17:40 1021 30.15 850 25.1 11.7 53 30 -5.3 22.5
17:45 1021 30.15 850 25.1 11.6 52.8 30 -5.4 22.2
17:50 1021 30.15 850 25.1 11.4 52.6 30 -5.3 22.4
17:55 1021 30.15 850 25.1 11.3 52.4 31 -5.3 22.5
18:00 1021 30.15 850 25.1 11.3 52.3 31 -5.2 22.6
18:05 1021 30.15 850 25.1 11.1 52 32 -5.1 22.8
18:10 1021 30.15 850 25.1 11 51.7 32 -5 22.9
18:15 1021 30.15 850 25.1 10.9 51.6 32 -5 23
18:20 1021 30.15 850 25.1 10.8 51.4 33 -5 23.1
18:25 1021 30.15 850 25.1 10.7 51.3 33 -5 23.1
18:30 1021 30.15 850 25.1 10.6 51.2 33 -4.9 23.2
18:35 1021 30.15 850 25.1 10.5 50.9 33 -4.9 23.1
18:40 1021 30.15 850 25.1 10.5 50.9 33 -5 23.1
18:45 1021 30.15 850 25.1 10.4 50.8 33 -5.1 22.8
18:50 1021 30.15 850 25.1 10.5 50.9 33 -5 22.9
18:55 1021 30.15 850 25.1 10.4 50.6 33 -5.1 22.7
19:00 1021 30.15 850 25.1 10.3 50.6 33 -5.1 22.8
19:05 1021 30.15 850 25.1 10.3 50.5 33 -5.1 22.9
19:10 1021 30.15 850 25.1 10.3 50.5 33 -5.1 22.8
19:15 1021 30.15 850 25.1 10.3 50.6 33 -5.1 22.9
19:20 1021 30.15 850 25.1 10.3 50.5 34 -5 22.9
19:25 1021 30.15 850 25.1 10.2 50.4 34 -5 23
19:30 1021 30.15 850 25.1 10.2 50.3 34 -5.1 22.8
19:35 1021 30.15 850 25.1 10.2 50.4 34 -5 22.9
19:40 1021 30.15 850 25.1 10.2 50.3 34 -4.9 23.2
19:45 1021 30.15 850 25.1 10.1 50.3 35 -4.6 23.8
19:50 1021 30.15 850 25.1 10 50 36 -4.5 23.9
19:55 1021 30.15 850 25.1 10 50 36 -4.3 24.2
20:00 1021 30.15 850 25.1 10 49.9 36 -4.3 24.3
20:05 1021 30.15 850 25.1 9.9 49.8 37 -4.2 24.5
20:10 1021 30.15 850 25.1 9.8 49.7 37 -4.2 24.5
20:15 1021 30.15 850 25.1 9.9 49.8 37 -4 24.8
20:20 1021 30.15 850 25.1 9.9 49.7 37 -4 24.9
20:25 1021 30.15 850 25.1 9.7 49.5 38 -4 24.8
20:30 1021 30.15 850 25.1 9.7 49.5 38 -3.9 24.9
20:35 1021 30.15 850 25.1 9.7 49.4 38 -3.8 25.1
20:40 1021 30.15 850 25.1 9.6 49.3 39 -3.8 25.2
20:45 1021 30.15 850 25.1 9.5 49 39 -3.7 25.4
20:50 1021 30.15 850 25.1 9.4 48.9 39 -3.8 25.2
20:55 1021 30.15 850 25.1 9.4 48.9 40 -3.6 25.5
21:00 1021 30.15 850 25.1 9.3 48.7 40 -3.6 25.5
21:05 1021 30.15 850 25.1 9.3 48.7 40 -3.5 25.6
21:10 1021 30.15 850 25.1 9.2 48.6 40 -3.5 25.7
21:15 1021 30.15 850 25.1 9.2 48.5 40 -3.6 25.6
21:20 1021 30.15 850 25.1 9.2 48.6 40 -3.6 25.6
21:25 1021 30.15 850 25.1 9.2 48.6 40 -3.8 25.1
21:30 1021 30.15 850 25.1 9.2 48.6 39 -4 24.8
21:35 1021 30.15 851 25.13 9.3 48.8 39 -3.9 25
21:40 1021 30.15 851 25.13 9.3 48.7 39 -4 24.8
21:45 1021 30.15 850 25.1 9.3 48.8 38 -4.1 24.6
21:50 1021 30.15 850 25.1 9.3 48.8 38 -4.1 24.7
21:55 1021 30.15 850 25.1 9.3 48.8 38 -4.1 24.6
22:00 1021 30.15 850 25.1 9.2 48.6 38 -4.2 24.5
22:05 1021 30.15 850 25.1 9.2 48.6 38 -4.3 24.3
22:10 1021 30.15 850 25.1 9.2 48.6 38 -4.2 24.4
22:15 1021 30.15 850 25.1 9.2 48.6 38 -4.2 24.4
22:20 1021 30.15 850 25.1 9.1 48.4 39 -4.2 24.5
22:25 1021 30.15 850 25.1 9.2 48.5 38 -4.2 24.4
22:30 1021 30.15 850 25.1 9.2 48.6 38 -4.3 24.3
22:35 1021 30.15 850 25.1 9.2 48.6 38 -4.2 24.5
22:40 1021 30.15 850 25.1 9.3 48.7 38 -4.2 24.4
22:45 1021 30.15 850 25.1 9.2 48.5 39 -4.1 24.6
22:50 1021 30.15 850 25.1 9.1 48.4 39 -4.1 24.5
22:55 1021 30.15 850 25.1 8.9 48.1 40 -4 24.7
23:00 1021 30.15 850 25.1 8.7 47.7 40 -4 24.8
23:05 1021 30.15 850 25.1 8.5 47.3 41 -4.1 24.7
23:10 1021 30.15 850 25.1 8.4 47.1 41 -4.1 24.7
23:15 1021 30.15 850 25.1 8.3 46.9 41 -4.2 24.5
23:20 1021 30.15 850 25.1 8.2 46.7 41 -4.2 24.5
23:25 1021 30.15 850 25.1 8.1 46.6 41 -4.2 24.5
23:30 1021 30.15 850 25.1 8.1 46.7 42 -4.1 24.6
23:35 1021 30.15 850 25.1 8.3 46.9 41 -4.2 24.4
23:40 1021 30.15 850 25.1 8.3 47 41 -4.1 24.7
23:45 1021 30.15 850 25.1 8.3 46.9 41 -4.1 24.6
23:50 1021 30.15 850 25.1 8.2 46.7 42 -4.1 24.7
23:55 1021 30.15 850 25.1 8.1 46.6 41 -4.2 24.4
24:00 1021 30.15 850 25.1 8.2 46.8 41 -4.1 24.6